Time;durP1;ratioP1;P1;durP2;ratioP2;P2;SDS_P1;SDS_P2;PMS_P1;PMS_P2;Temp;Humidity;BMP_temperature;BMP_pressure;BME280_temperature;BME280_humidity;BME280_pressure;Samples;Min_cycle;Max_cycle;Signal;HPM_P1;HPM_P2
2021/03/10 00:01:06;;;;;;;51.40;28.92;;;3.60;99.90;;;;;;474624;250;27524;-71
2021/03/10 00:03:07;;;;;;;63.85;32.75;;;3.60;99.90;;;;;;474651;250;27511;-69
2021/03/10 00:05:08;;;;;;;61.83;32.20;;;3.60;99.90;;;;;;474638;250;27591;-70
2021/03/10 00:07:10;;;;;;;58.78;30.70;;;3.60;99.90;;;;;;474624;250;28059;-72
2021/03/10 00:09:11;;;;;;;60.33;32.80;;;3.60;99.90;;;;;;474599;250;27988;-70
2021/03/10 00:11:12;;;;;;;58.40;30.55;;;3.60;99.90;;;;;;474600;250;27511;-70
2021/03/10 00:13:13;;;;;;;63.78;32.78;;;3.60;99.90;;;;;;474574;250;27618;-71
2021/03/10 00:15:15;;;;;;;63.60;32.72;;;3.60;99.90;;;;;;474584;250;27627;-70
2021/03/10 00:17:16;;;;;;;60.67;31.75;;;3.60;99.90;;;;;;474571;250;27535;-70
2021/03/10 00:19:17;;;;;;;64.70;32.47;;;3.60;99.90;;;;;;474581;250;27520;-70
2021/03/10 00:21:18;;;;;;;64.40;32.38;;;3.60;99.90;;;;;;474588;250;27515;-70
2021/03/10 00:23:20;;;;;;;62.92;32.72;;;3.70;99.90;;;;;;474571;250;28078;-73
2021/03/10 00:25:21;;;;;;;64.93;33.15;;;3.60;99.90;;;;;;474563;250;28109;-70
2021/03/10 00:27:25;;;;;;;68.25;33.03;;;3.60;99.90;;;;;;474593;250;27639;-71
2021/03/10 00:29:26;;;;;;;65.95;32.35;;;3.60;99.90;;;;;;474622;250;27527;-73
2021/03/10 00:31:28;;;;;;;65.35;34.45;;;3.70;99.90;;;;;;474557;250;28064;-72
2021/03/10 00:33:29;;;;;;;73.07;35.15;;;3.70;99.90;;;;;;474599;249;28081;-73
2021/03/10 00:35:30;;;;;;;58.72;31.50;;;3.70;99.90;;;;;;474558;250;27600;-73
2021/03/10 00:37:31;;;;;;;63.40;33.60;;;3.60;99.90;;;;;;474562;250;27619;-74
2021/03/10 00:39:33;;;;;;;62.30;32.53;;;3.60;99.90;;;;;;474561;250;27611;-74
2021/03/10 00:41:34;;;;;;;58.53;31.08;;;3.60;99.90;;;;;;474574;250;27550;-74
2021/03/10 00:43:35;;;;;;;63.10;33.25;;;3.60;99.90;;;;;;474559;250;27523;-73
2021/03/10 00:45:36;;;;;;;63.85;32.17;;;3.60;99.90;;;;;;474574;250;28073;-73
2021/03/10 00:47:38;;;;;;;67.43;34.05;;;3.70;99.90;;;;;;474570;250;27972;-73
2021/03/10 00:49:39;;;;;;;68.47;35.10;;;3.70;99.90;;;;;;474578;250;27598;-72
2021/03/10 00:51:40;;;;;;;66.43;33.72;;;3.70;99.90;;;;;;474575;250;27598;-74
2021/03/10 00:53:42;;;;;;;67.18;34.78;;;3.70;99.90;;;;;;474566;250;27539;-74
2021/03/10 00:55:43;;;;;;;62.83;33.03;;;3.70;99.90;;;;;;474565;250;27509;-73
2021/03/10 00:57:44;;;;;;;61.47;32.80;;;3.70;99.90;;;;;;474560;250;27539;-74
2021/03/10 00:59:45;;;;;;;69.75;34.20;;;3.70;99.90;;;;;;474600;250;28045;-70
2021/03/10 01:01:46;;;;;;;67.25;33.10;;;3.60;99.90;;;;;;474602;250;28068;-70
2021/03/10 01:03:48;;;;;;;68.60;34.25;;;3.60;99.90;;;;;;474592;250;27532;-72
2021/03/10 01:05:49;;;;;;;71.65;34.10;;;3.70;99.90;;;;;;474594;250;27508;-71
2021/03/10 01:07:50;;;;;;;72.22;35.78;;;3.60;99.90;;;;;;474605;250;27618;-73
2021/03/10 01:09:52;;;;;;;65.97;34.13;;;3.60;99.90;;;;;;474622;250;27543;-70
2021/03/10 01:11:53;;;;;;;67.70;35.05;;;3.70;99.90;;;;;;474600;250;27599;-71
2021/03/10 01:13:54;;;;;;;66.00;34.75;;;3.70;99.90;;;;;;474601;250;28143;-70
2021/03/10 01:15:55;;;;;;;64.40;33.83;;;3.60;99.90;;;;;;474597;249;27941;-71
2021/03/10 01:17:57;;;;;;;64.00;34.45;;;3.60;99.90;;;;;;474588;250;27615;-70
2021/03/10 01:19:58;;;;;;;69.18;34.13;;;3.60;99.90;;;;;;474625;249;27508;-70
2021/03/10 01:21:59;;;;;;;67.45;34.47;;;3.60;99.90;;;;;;474638;250;27511;-72
2021/03/10 01:24:00;;;;;;;62.28;32.63;;;3.60;99.90;;;;;;474617;250;27531;-71
2021/03/10 01:26:02;;;;;;;67.85;34.17;;;3.60;99.90;;;;;;474595;250;27527;-70
2021/03/10 01:28:03;;;;;;;67.03;35.97;;;3.60;99.90;;;;;;474593;250;28013;-71
2021/03/10 01:30:04;;;;;;;69.57;36.55;;;3.60;99.90;;;;;;474622;250;27959;-70
2021/03/10 01:32:05;;;;;;;71.28;35.15;;;3.60;99.90;;;;;;474583;250;27532;-70
2021/03/10 01:34:07;;;;;;;57.70;31.58;;;3.60;99.90;;;;;;474603;250;27614;-71
2021/03/10 01:36:08;;;;;;;66.93;34.95;;;3.60;99.90;;;;;;474597;250;27596;-70
2021/03/10 01:38:09;;;;;;;68.68;34.33;;;3.60;99.90;;;;;;474596;250;27512;-70
2021/03/10 01:40:10;;;;;;;68.57;34.55;;;3.60;99.90;;;;;;474600;250;27526;-72
2021/03/10 01:42:12;;;;;;;71.68;35.10;;;3.60;99.90;;;;;;474578;250;27535;-70
2021/03/10 01:44:13;;;;;;;63.35;34.20;;;3.60;99.90;;;;;;474585;250;28106;-70
2021/03/10 01:46:14;;;;;;;67.90;34.55;;;3.60;99.90;;;;;;474584;250;27983;-70
2021/03/10 01:48:15;;;;;;;67.18;35.13;;;3.60;99.90;;;;;;474583;250;27595;-72
2021/03/10 01:50:17;;;;;;;71.75;34.28;;;3.60;99.90;;;;;;474574;250;27621;-72
2021/03/10 01:52:18;;;;;;;69.68;35.17;;;3.60;99.90;;;;;;474577;250;27519;-70
2021/03/10 01:54:19;;;;;;;63.33;32.53;;;3.60;99.90;;;;;;474583;250;27589;-71
2021/03/10 01:56:20;;;;;;;78.50;34.10;;;3.60;99.90;;;;;;474584;250;27581;-70
2021/03/10 01:58:22;;;;;;;66.95;34.97;;;3.60;99.90;;;;;;474579;250;28014;-72
2021/03/10 02:00:24;;;;;;;65.90;35.03;;;3.60;99.90;;;;;;474573;250;27953;-71
2021/03/10 02:02:24;;;;;;;65.70;34.72;;;3.60;99.90;;;;;;474569;250;27527;-71
2021/03/10 02:04:25;;;;;;;73.43;35.00;;;3.60;99.90;;;;;;474592;250;27940;-71
2021/03/10 02:06:27;;;;;;;63.90;32.35;;;3.60;99.90;;;;;;474576;250;27516;-71
2021/03/10 02:08:28;;;;;;;63.70;32.83;;;3.50;99.90;;;;;;474581;250;27504;-71
2021/03/10 02:10:29;;;;;;;63.67;33.45;;;3.50;99.90;;;;;;474580;250;27538;-69
2021/03/10 02:12:30;;;;;;;69.20;34.47;;;3.50;99.90;;;;;;474585;250;28021;-71
2021/03/10 02:14:32;;;;;;;60.55;32.05;;;3.50;99.90;;;;;;474594;250;27985;-70
2021/03/10 02:16:33;;;;;;;65.93;33.25;;;3.50;99.90;;;;;;474596;250;27530;-71
2021/03/10 02:18:34;;;;;;;60.45;32.42;;;3.50;99.90;;;;;;474571;250;27532;-69
2021/03/10 02:20:36;;;;;;;62.13;33.25;;;3.50;99.90;;;;;;474579;250;27519;-70
2021/03/10 02:22:37;;;;;;;58.87;32.95;;;3.50;99.90;;;;;;474593;250;27525;-72
2021/03/10 02:24:38;;;;;;;61.40;32.20;;;3.50;99.90;;;;;;474589;246;27587;-70
2021/03/10 02:26:39;;;;;;;66.22;33.50;;;3.50;99.90;;;;;;474584;249;28001;-71
2021/03/10 02:28:41;;;;;;;57.60;31.70;;;3.50;99.90;;;;;;474582;250;28031;-70
2021/03/10 02:30:42;;;;;;;76.53;34.70;;;3.50;99.90;;;;;;474596;250;28025;-69
2021/03/10 02:32:43;;;;;;;60.95;33.35;;;3.50;99.90;;;;;;474582;250;27516;-71
2021/03/10 02:34:44;;;;;;;67.68;33.45;;;3.40;99.90;;;;;;474584;250;27531;-70
2021/03/10 02:36:46;;;;;;;68.90;35.78;;;3.50;99.90;;;;;;474602;250;27607;-71
2021/03/10 02:38:47;;;;;;;65.30;36.03;;;3.40;99.90;;;;;;474664;250;27428;-70
2021/03/10 02:40:48;;;;;;;73.28;36.65;;;3.50;99.90;;;;;;474644;250;27524;-71
2021/03/10 02:42:49;;;;;;;71.15;34.65;;;3.50;99.90;;;;;;474621;250;27999;-70
2021/03/10 02:44:51;;;;;;;75.53;35.40;;;3.40;99.90;;;;;;474632;250;27981;-70
2021/03/10 02:46:52;;;;;;;63.10;33.85;;;3.40;99.90;;;;;;474639;250;27623;-70
2021/03/10 02:48:53;;;;;;;65.72;34.40;;;3.50;99.90;;;;;;474622;250;27642;-71
2021/03/10 02:50:54;;;;;;;72.65;36.72;;;3.50;99.90;;;;;;474602;250;27519;-70
2021/03/10 02:52:56;;;;;;;71.53;36.40;;;3.50;99.90;;;;;;474584;250;27515;-71
2021/03/10 02:54:57;;;;;;;69.72;34.67;;;3.40;99.90;;;;;;474587;250;27521;-70
2021/03/10 02:56:58;;;;;;;65.37;36.00;;;3.50;99.90;;;;;;474577;250;27961;-70
2021/03/10 02:59:00;;;;;;;61.08;34.00;;;3.40;99.90;;;;;;474579;250;28013;-73
2021/03/10 03:01:01;;;;;;;61.58;33.40;;;3.40;99.90;;;;;;474591;250;27509;-70
2021/03/10 03:03:02;;;;;;;70.95;35.10;;;3.40;99.90;;;;;;474585;250;27636;-71
2021/03/10 03:05:03;;;;;;;68.70;34.67;;;3.40;99.90;;;;;;474609;250;28028;-70
2021/03/10 03:07:04;;;;;;;68.45;36.60;;;3.50;99.90;;;;;;474573;250;27524;-70
2021/03/10 03:09:06;;;;;;;62.72;33.10;;;3.40;99.90;;;;;;474614;250;27527;-70
2021/03/10 03:11:07;;;;;;;74.18;36.25;;;3.40;99.90;;;;;;474586;250;27507;-70
2021/03/10 03:13:08;;;;;;;72.65;36.53;;;3.40;99.90;;;;;;474583;250;27959;-70
2021/03/10 03:15:09;;;;;;;72.72;35.50;;;3.40;99.90;;;;;;474582;250;27977;-72
2021/03/10 03:17:11;;;;;;;68.87;34.50;;;3.30;99.90;;;;;;474366;250;27581;-70
2021/03/10 03:19:12;;;;;;;67.97;33.75;;;3.30;99.90;;;;;;473484;248;27639;-71
2021/03/10 03:21:13;;;;;;;75.87;36.35;;;3.30;99.90;;;;;;473473;248;27525;-70
2021/03/10 03:23:15;;;;;;;77.78;36.20;;;3.30;99.90;;;;;;473473;248;27533;-70
2021/03/10 03:25:16;;;;;;;70.75;37.47;;;3.30;99.90;;;;;;473484;248;27528;-70
2021/03/10 03:27:25;;;;;;;65.32;34.33;;;3.30;99.90;;;;;;473471;249;27978;-71
2021/03/10 03:29:18;;;;;;;65.03;34.78;;;3.30;99.90;;;;;;473633;248;27978;-71
2021/03/10 03:31:20;;;;;;;72.47;36.50;;;3.30;99.90;;;;;;473494;248;27631;-72
2021/03/10 03:33:21;;;;;;;68.85;34.85;;;3.30;99.90;;;;;;473477;248;27410;-72
2021/03/10 03:35:22;;;;;;;71.37;35.20;;;3.30;99.90;;;;;;473501;248;27528;-72
2021/03/10 03:37:23;;;;;;;69.35;36.42;;;3.20;99.90;;;;;;473489;248;27498;-71
2021/03/10 03:39:25;;;;;;;76.85;36.17;;;3.20;99.90;;;;;;473496;248;27600;-70
2021/03/10 03:41:26;;;;;;;74.93;34.10;;;3.20;99.90;;;;;;473486;248;27422;-71
2021/03/10 03:43:27;;;;;;;71.72;36.25;;;3.20;99.90;;;;;;473488;248;27868;-70
2021/03/10 03:45:28;;;;;;;66.97;34.65;;;3.20;99.90;;;;;;473489;248;27975;-71
2021/03/10 03:47:30;;;;;;;72.10;34.50;;;3.20;99.90;;;;;;473483;248;27845;-71
2021/03/10 03:49:31;;;;;;;74.93;37.25;;;3.20;99.90;;;;;;473491;248;27513;-71
2021/03/10 03:51:32;;;;;;;73.53;36.03;;;3.20;99.90;;;;;;473506;248;27516;-70
2021/03/10 03:53:33;;;;;;;78.18;36.88;;;3.20;99.90;;;;;;473501;248;27618;-70
2021/03/10 03:55:35;;;;;;;78.30;37.08;;;3.20;99.90;;;;;;473492;248;27620;-69
2021/03/10 03:57:36;;;;;;;66.90;34.45;;;3.20;99.90;;;;;;473468;248;28071;-72
2021/03/10 03:59:37;;;;;;;65.80;33.58;;;3.10;99.90;;;;;;473466;248;27855;-70
2021/03/10 04:01:38;;;;;;;75.05;36.72;;;3.10;99.90;;;;;;473483;248;27637;-71
2021/03/10 04:03:40;;;;;;;73.95;35.10;;;3.10;99.90;;;;;;473496;248;27436;-70
2021/03/10 04:05:41;;;;;;;75.25;35.80;;;3.10;99.90;;;;;;473522;248;27417;-71
2021/03/10 04:07:42;;;;;;;76.68;38.10;;;3.20;99.90;;;;;;473519;248;27432;-72
2021/03/10 04:09:43;;;;;;;69.00;36.08;;;3.20;99.90;;;;;;473494;248;27608;-70
2021/03/10 04:11:45;;;;;;;75.82;35.88;;;3.20;99.90;;;;;;473484;248;27607;-71
2021/03/10 04:13:46;;;;;;;69.20;35.85;;;3.20;99.90;;;;;;473495;248;27947;-72
2021/03/10 04:15:47;;;;;;;69.35;36.10;;;3.20;99.90;;;;;;473490;248;27950;-70
2021/03/10 04:17:49;;;;;;;73.18;34.90;;;3.20;99.90;;;;;;473490;248;27620;-71
2021/03/10 04:19:50;;;;;;;73.95;36.75;;;3.20;99.90;;;;;;473480;248;27517;-71
2021/03/10 04:21:51;;;;;;;72.97;35.80;;;3.20;99.90;;;;;;473499;248;27514;-71
2021/03/10 04:23:52;;;;;;;73.22;37.00;;;3.20;99.90;;;;;;473498;248;27536;-72
2021/03/10 04:25:53;;;;;;;73.55;35.65;;;3.20;99.90;;;;;;473493;248;27611;-70
2021/03/10 04:27:55;;;;;;;71.47;37.05;;;3.20;99.90;;;;;;473506;248;28038;-72
2021/03/10 04:29:56;;;;;;;71.55;35.67;;;3.20;99.90;;;;;;473494;248;27974;-71
2021/03/10 04:31:57;;;;;;;71.82;35.97;;;3.20;99.90;;;;;;473505;248;27525;-70
2021/03/10 04:33:58;;;;;;;80.12;36.85;;;3.20;99.90;;;;;;473493;248;27519;-72
2021/03/10 04:36:00;;;;;;;69.87;35.88;;;3.10;99.90;;;;;;473482;248;27528;-70
2021/03/10 04:38:01;;;;;;;65.55;31.98;;;3.10;99.90;;;;;;473503;248;27429;-71
2021/03/10 04:40:02;;;;;;;64.65;32.25;;;3.10;99.90;;;;;;473473;248;27433;-72
2021/03/10 04:42:03;;;;;;;69.37;35.10;;;3.10;99.90;;;;;;473490;248;27535;-72
2021/03/10 04:44:05;;;;;;;68.70;34.78;;;3.10;99.90;;;;;;473493;248;27923;-72
2021/03/10 04:46:06;;;;;;;73.18;35.67;;;3.10;99.90;;;;;;473522;248;28099;-73
2021/03/10 04:48:07;;;;;;;69.95;36.20;;;3.10;99.90;;;;;;473511;248;27512;-73
2021/03/10 04:50:09;;;;;;;68.32;34.75;;;3.10;99.90;;;;;;473491;248;27536;-74
2021/03/10 04:52:10;;;;;;;69.25;34.40;;;3.10;99.90;;;;;;473485;248;27436;-75
2021/03/10 04:54:11;;;;;;;81.50;37.22;;;3.10;99.90;;;;;;473489;248;27604;-72
2021/03/10 04:56:12;;;;;;;73.68;36.35;;;3.10;99.90;;;;;;473510;248;27527;-72
2021/03/10 04:58:14;;;;;;;70.07;37.17;;;3.10;99.90;;;;;;473518;248;27967;-73
2021/03/10 05:00:15;;;;;;;78.30;37.35;;;3.10;99.90;;;;;;473476;249;28068;-73
2021/03/10 05:02:16;;;;;;;80.07;38.28;;;3.10;99.90;;;;;;473505;247;27493;-73
2021/03/10 05:04:17;;;;;;;76.85;37.00;;;3.10;99.90;;;;;;473486;248;27507;-72
2021/03/10 05:06:19;;;;;;;83.05;36.15;;;3.10;99.90;;;;;;473523;248;27605;-74
2021/03/10 05:08:20;;;;;;;74.20;36.88;;;3.10;99.90;;;;;;473502;248;27509;-72
2021/03/10 05:10:21;;;;;;;73.70;35.53;;;3.10;99.90;;;;;;473532;248;27516;-74
2021/03/10 05:12:22;;;;;;;69.60;36.08;;;3.10;99.90;;;;;;473535;248;27522;-72
2021/03/10 05:14:24;;;;;;;73.03;36.55;;;3.10;99.90;;;;;;473561;248;27890;-74
2021/03/10 05:16:25;;;;;;;77.18;37.95;;;3.10;99.90;;;;;;473545;248;27901;-74
2021/03/10 05:18:26;;;;;;;73.20;37.83;;;3.10;99.90;;;;;;473550;247;27389;-74
2021/03/10 05:20:27;;;;;;;83.53;39.67;;;3.10;99.90;;;;;;473558;248;27639;-72
2021/03/10 05:22:29;;;;;;;84.10;38.40;;;3.10;99.90;;;;;;473538;248;27488;-72
2021/03/10 05:24:30;;;;;;;79.75;39.08;;;3.10;99.90;;;;;;473512;248;27516;-74
2021/03/10 05:26:31;;;;;;;88.20;39.58;;;3.10;99.90;;;;;;473528;248;27496;-74
2021/03/10 05:28:32;;;;;;;71.40;35.58;;;3.10;99.90;;;;;;473510;248;27880;-71
2021/03/10 05:30:34;;;;;;;72.95;36.97;;;3.10;99.90;;;;;;473496;248;28009;-71
2021/03/10 05:32:35;;;;;;;76.82;36.30;;;3.10;99.90;;;;;;473481;248;27412;-72
2021/03/10 05:34:36;;;;;;;78.85;38.17;;;3.10;99.90;;;;;;473501;248;27501;-70
2021/03/10 05:36:37;;;;;;;77.37;38.17;;;3.10;99.90;;;;;;473495;248;27523;-72
2021/03/10 05:38:39;;;;;;;77.78;38.47;;;3.10;99.90;;;;;;473512;248;27607;-70
2021/03/10 05:40:40;;;;;;;80.55;40.03;;;3.10;99.90;;;;;;473481;248;27516;-71
2021/03/10 05:42:41;;;;;;;74.50;37.80;;;3.10;99.90;;;;;;473481;248;27546;-71
2021/03/10 05:44:42;;;;;;;80.93;39.50;;;3.10;99.90;;;;;;473510;248;27967;-69
2021/03/10 05:46:44;;;;;;;70.95;35.70;;;3.10;99.90;;;;;;473496;248;27981;-72
2021/03/10 05:48:45;;;;;;;79.93;36.85;;;3.10;99.90;;;;;;473485;248;27533;-72
2021/03/10 05:50:46;;;;;;;80.55;37.40;;;3.10;99.90;;;;;;473498;248;27626;-72
2021/03/10 05:52:47;;;;;;;86.45;39.10;;;3.10;99.90;;;;;;473511;248;27429;-70
2021/03/10 05:54:51;;;;;;;79.68;38.80;;;3.10;99.90;;;;;;473507;248;27413;-70
2021/03/10 05:56:50;;;;;;;78.75;38.00;;;3.10;99.90;;;;;;473551;248;27425;-70
2021/03/10 05:58:51;;;;;;;82.82;39.95;;;3.10;99.90;;;;;;473484;248;27976;-73
2021/03/10 06:00:52;;;;;;;70.80;37.00;;;3.10;99.90;;;;;;473480;248;29175;-72
2021/03/10 06:02:54;;;;;;;81.90;39.88;;;3.10;99.90;;;;;;473493;248;27525;-70
2021/03/10 06:04:55;;;;;;;80.50;38.30;;;3.10;99.90;;;;;;473489;248;27536;-70
2021/03/10 06:06:56;;;;;;;76.62;37.33;;;3.10;99.90;;;;;;473494;248;27507;-70
2021/03/10 06:08:58;;;;;;;76.15;38.20;;;3.10;99.90;;;;;;473494;248;27532;-71
2021/03/10 06:10:59;;;;;;;96.20;41.67;;;3.10;99.90;;;;;;473508;248;27542;-71
2021/03/10 06:13:00;;;;;;;91.63;44.17;;;3.10;99.90;;;;;;473505;248;28012;-70
2021/03/10 06:15:01;;;;;;;84.80;39.40;;;3.10;99.90;;;;;;473491;248;27991;-73
2021/03/10 06:17:03;;;;;;;76.82;37.58;;;3.10;99.90;;;;;;473479;248;27990;-70
2021/03/10 06:19:04;;;;;;;74.30;37.08;;;3.10;99.90;;;;;;473485;248;27465;-70
2021/03/10 06:21:05;;;;;;;76.20;37.42;;;3.10;99.90;;;;;;473490;248;27527;-71
2021/03/10 06:23:06;;;;;;;78.37;36.28;;;3.10;99.90;;;;;;473499;248;27591;-70
2021/03/10 06:25:08;;;;;;;69.75;38.47;;;3.20;99.90;;;;;;473506;248;27624;-71
2021/03/10 06:27:09;;;;;;;76.60;38.42;;;3.20;99.90;;;;;;473485;248;27524;-71
2021/03/10 06:29:10;;;;;;;76.75;37.00;;;3.20;99.90;;;;;;473498;248;27900;-71
2021/03/10 06:31:11;;;;;;;72.50;36.42;;;3.20;99.90;;;;;;473521;248;29061;-72
2021/03/10 06:33:13;;;;;;;86.65;38.28;;;3.20;99.90;;;;;;473554;248;27525;-71
2021/03/10 06:35:14;;;;;;;78.37;36.60;;;3.20;99.90;;;;;;473538;248;27429;-71
2021/03/10 06:37:15;;;;;;;77.82;40.08;;;3.30;99.90;;;;;;473552;247;27603;-72
2021/03/10 06:39:16;;;;;;;81.45;38.28;;;3.30;99.90;;;;;;473539;248;27500;-73
2021/03/10 06:41:18;;;;;;;80.15;39.15;;;3.30;99.90;;;;;;473545;248;27508;-75
2021/03/10 06:43:19;;;;;;;85.07;39.40;;;3.30;99.90;;;;;;473550;248;27903;-73
2021/03/10 06:45:20;;;;;;;77.57;37.72;;;3.40;99.90;;;;;;473492;248;28010;-73
2021/03/10 06:47:21;;;;;;;81.15;39.97;;;3.40;99.90;;;;;;473510;248;27446;-74
2021/03/10 06:49:23;;;;;;;92.00;41.00;;;3.40;99.90;;;;;;473513;248;27549;-73
2021/03/10 06:51:24;;;;;;;82.53;40.38;;;3.40;99.90;;;;;;473521;248;27441;-73
2021/03/10 06:53:25;;;;;;;93.82;43.42;;;3.50;99.90;;;;;;473506;248;27497;-73
2021/03/10 06:55:26;;;;;;;79.75;40.60;;;3.50;99.90;;;;;;473501;248;27513;-74
2021/03/10 06:57:28;;;;;;;93.60;41.97;;;3.50;99.90;;;;;;473479;248;27891;-73
2021/03/10 06:59:29;;;;;;;79.93;40.50;;;3.60;99.90;;;;;;473481;248;27978;-72
2021/03/10 07:01:30;;;;;;;81.72;41.80;;;3.60;99.90;;;;;;473488;248;27524;-74
2021/03/10 07:03:31;;;;;;;87.75;42.08;;;3.60;99.90;;;;;;473489;248;27520;-72
2021/03/10 07:05:33;;;;;;;80.72;39.67;;;3.60;99.90;;;;;;473487;248;27520;-73
2021/03/10 07:07:35;;;;;;;81.32;38.45;;;3.70;99.90;;;;;;473488;248;27629;-73
2021/03/10 07:09:35;;;;;;;78.32;40.10;;;3.70;99.90;;;;;;473517;248;27524;-73
2021/03/10 07:11:36;;;;;;;80.15;39.17;;;3.80;99.90;;;;;;473511;248;27634;-73
2021/03/10 07:13:38;;;;;;;78.03;39.53;;;3.80;99.90;;;;;;473474;248;28020;-73
2021/03/10 07:15:39;;;;;;;76.50;38.40;;;3.90;99.90;;;;;;473491;248;27565;-72
2021/03/10 07:17:40;;;;;;;89.22;40.53;;;3.90;99.90;;;;;;473480;248;27615;-73
2021/03/10 07:19:42;;;;;;;76.53;39.47;;;4.00;99.90;;;;;;473481;248;27530;-72
2021/03/10 07:21:43;;;;;;;80.95;39.05;;;4.00;99.90;;;;;;473450;248;27429;-73
2021/03/10 07:23:44;;;;;;;72.15;39.22;;;4.00;99.90;;;;;;473482;248;27433;-73
2021/03/10 07:25:45;;;;;;;81.95;39.90;;;4.00;99.90;;;;;;473484;248;27991;-75
2021/03/10 07:27:47;;;;;;;87.18;41.20;;;4.10;99.90;;;;;;473485;248;28173;-74
2021/03/10 07:29:48;;;;;;;83.65;42.20;;;4.10;99.90;;;;;;473522;248;27500;-72
2021/03/10 07:31:49;;;;;;;87.80;42.53;;;4.10;99.90;;;;;;473493;248;27511;-71
2021/03/10 07:33:50;;;;;;;83.78;39.50;;;4.20;99.90;;;;;;473488;248;27640;-72
2021/03/10 07:35:52;;;;;;;87.15;42.25;;;4.30;99.90;;;;;;473492;248;27544;-74
2021/03/10 07:37:53;;;;;;;91.55;44.28;;;4.20;99.90;;;;;;473500;248;27550;-73
2021/03/10 07:39:54;;;;;;;92.15;43.53;;;4.30;99.90;;;;;;473508;248;28017;-71
2021/03/10 07:41:55;;;;;;;87.93;41.70;;;4.30;99.90;;;;;;473502;248;28051;-69
2021/03/10 07:43:58;;;;;;;89.03;43.47;;;4.40;99.90;;;;;;473501;248;27609;-70
2021/03/10 07:45:58;;;;;;;85.95;41.35;;;4.50;99.90;;;;;;473515;248;27539;-71
2021/03/10 07:47:59;;;;;;;88.00;44.13;;;4.50;99.90;;;;;;473521;248;27500;-70
2021/03/10 07:50:00;;;;;;;91.45;43.95;;;4.50;99.90;;;;;;473513;248;27437;-71
2021/03/10 07:52:02;;;;;;;84.05;42.30;;;4.50;99.90;;;;;;473511;248;27969;-70
2021/03/10 07:54:03;;;;;;;86.35;43.38;;;4.50;99.90;;;;;;473545;248;27630;-71
2021/03/10 07:56:04;;;;;;;80.47;42.45;;;4.60;99.90;;;;;;473554;248;27425;-71
2021/03/10 07:58:05;;;;;;;87.75;43.42;;;4.60;99.90;;;;;;473528;248;27620;-71
2021/03/10 08:00:12;;;;;;;90.70;43.08;;;4.60;99.90;;;;;;473504;248;27611;-72
2021/03/10 08:02:08;;;;;;;92.32;46.17;;;4.60;99.90;;;;;;473585;248;27588;-70
2021/03/10 08:04:09;;;;;;;99.75;46.75;;;4.60;99.90;;;;;;473510;248;27955;-70
2021/03/10 08:06:12;;;;;;;96.68;47.10;;;4.60;99.90;;;;;;473479;248;27528;-72
2021/03/10 08:08:12;;;;;;;109.70;51.05;;;4.60;99.90;;;;;;473522;248;27516;-70
2021/03/10 08:10:13;;;;;;;95.30;47.25;;;4.60;99.90;;;;;;473517;248;27523;-71
2021/03/10 08:12:14;;;;;;;90.82;44.97;;;4.60;99.90;;;;;;473496;248;27611;-72
2021/03/10 08:14:16;;;;;;;98.37;46.13;;;4.70;99.90;;;;;;473512;248;27872;-69
2021/03/10 08:16:17;;;;;;;93.85;46.40;;;4.80;99.90;;;;;;473507;248;27402;-71
2021/03/10 08:18:18;;;;;;;93.62;45.38;;;4.90;99.90;;;;;;473517;248;27620;-70
2021/03/10 08:20:19;;;;;;;97.97;46.22;;;5.00;99.90;;;;;;473481;248;27602;-71
2021/03/10 08:22:21;;;;;;;93.20;48.03;;;5.10;99.90;;;;;;473497;248;27580;-71
2021/03/10 08:24:22;;;;;;;91.65;43.50;;;5.20;99.90;;;;;;473556;248;28174;-70
2021/03/10 08:26:23;;;;;;;80.50;42.53;;;5.30;99.90;;;;;;473496;248;27931;-70
2021/03/10 08:28:24;;;;;;;85.68;44.42;;;5.50;99.90;;;;;;473487;244;27521;-70
2021/03/10 08:30:26;;;;;;;85.00;44.22;;;5.60;99.90;;;;;;473507;248;27504;-71
2021/03/10 08:32:27;;;;;;;77.37;41.05;;;5.70;99.90;;;;;;473509;248;27516;-71
2021/03/10 08:34:28;;;;;;;72.90;40.55;;;5.70;99.90;;;;;;473488;248;28004;-71
2021/03/10 08:36:29;;;;;;;82.90;43.25;;;5.90;99.90;;;;;;473515;248;27540;-70
2021/03/10 08:38:31;;;;;;;70.73;39.57;;;6.00;99.90;;;;;;473489;248;27417;-73
2021/03/10 08:40:32;;;;;;;70.85;39.20;;;6.00;99.90;;;;;;473481;248;27846;-70
2021/03/10 08:42:33;;;;;;;75.20;40.07;;;6.10;99.90;;;;;;473457;248;27449;-70
2021/03/10 08:44:34;;;;;;;69.33;38.60;;;6.20;99.90;;;;;;473483;248;28547;-70
2021/03/10 08:46:36;;;;;;;74.10;40.70;;;6.20;99.90;;;;;;473512;248;28055;-70
2021/03/10 08:48:37;;;;;;;67.73;39.43;;;6.30;99.90;;;;;;473555;248;27958;-70
2021/03/10 08:50:38;;;;;;;70.37;38.90;;;6.30;99.90;;;;;;473539;248;28755;-71
2021/03/10 08:52:40;;;;;;;72.57;38.00;;;6.20;99.90;;;;;;473539;248;27842;-70
2021/03/10 08:54:41;;;;;;;65.90;36.63;;;6.30;99.90;;;;;;473547;248;27876;-72
2021/03/10 08:56:42;;;;;;;65.20;38.63;;;6.30;99.90;;;;;;473560;248;27843;-70
2021/03/10 08:58:43;;;;;;;62.20;36.77;;;6.40;99.90;;;;;;473537;248;27747;-70
2021/03/10 09:00:45;;;;;;;65.70;37.27;;;6.50;99.90;;;;;;473501;248;28444;-72
2021/03/10 09:02:48;;;;;;;61.93;35.50;;;6.60;99.90;;;;;;473511;248;28002;-70
2021/03/10 09:04:48;;;;;;;69.83;37.73;;;6.60;99.90;;;;;;473553;248;28594;-72
2021/03/10 09:06:48;;;;;;;59.57;34.87;;;6.60;99.90;;;;;;473493;248;28059;-70
2021/03/10 09:08:50;;;;;;;67.70;39.53;;;6.50;99.90;;;;;;473540;248;27776;-73
2021/03/10 09:10:51;;;;;;;62.70;38.30;;;6.50;99.90;;;;;;473542;248;27847;-72
2021/03/10 09:12:52;;;;;;;64.60;36.63;;;6.40;99.90;;;;;;473526;248;27971;-70
2021/03/10 09:14:53;;;;;;;64.70;36.53;;;6.50;99.90;;;;;;473536;248;28003;-72
2021/03/10 09:16:55;;;;;;;57.97;35.37;;;6.50;99.90;;;;;;473535;248;27979;-70
2021/03/10 09:18:56;;;;;;;67.53;38.10;;;6.40;99.90;;;;;;473493;248;28818;-70
2021/03/10 09:20:57;;;;;;;63.87;37.60;;;6.50;99.90;;;;;;473520;248;28260;-72
2021/03/10 09:22:58;;;;;;;69.90;38.63;;;6.50;99.90;;;;;;473493;248;28013;-70
2021/03/10 09:25:00;;;;;;;65.33;37.37;;;6.50;99.90;;;;;;473533;248;27775;-72
2021/03/10 09:27:01;;;;;;;66.77;38.10;;;6.50;99.90;;;;;;473529;248;27876;-70
2021/03/10 09:29:02;;;;;;;61.03;38.07;;;6.50;99.90;;;;;;473546;248;28334;-70
2021/03/10 09:31:03;;;;;;;68.63;37.47;;;6.50;99.90;;;;;;473515;249;27923;-70
2021/03/10 09:33:05;;;;;;;58.57;35.10;;;6.60;99.90;;;;;;473541;248;27733;-70
2021/03/10 09:35:06;;;;;;;63.80;37.07;;;6.70;99.90;;;;;;473520;248;27965;-73
2021/03/10 09:37:07;;;;;;;64.03;36.40;;;6.80;99.90;;;;;;473511;248;27907;-73
2021/03/10 09:39:08;;;;;;;64.40;36.17;;;6.70;99.90;;;;;;473508;248;28355;-72
2021/03/10 09:41:10;;;;;;;62.57;37.17;;;6.60;99.90;;;;;;473537;248;28441;-72
2021/03/10 09:43:11;;;;;;;62.97;35.83;;;6.70;99.90;;;;;;473511;248;27626;-72
2021/03/10 09:45:12;;;;;;;55.23;33.13;;;6.80;99.90;;;;;;473552;248;27774;-72
2021/03/10 09:47:13;;;;;;;59.73;34.43;;;6.80;99.90;;;;;;473525;248;28001;-73
2021/03/10 09:49:15;;;;;;;66.43;37.90;;;6.80;99.90;;;;;;473504;248;27907;-73
2021/03/10 09:51:16;;;;;;;61.87;37.00;;;6.80;99.90;;;;;;473529;248;27997;-72
2021/03/10 09:53:17;;;;;;;58.20;34.00;;;6.80;99.90;;;;;;473547;248;27968;-72
2021/03/10 09:55:18;;;;;;;54.23;33.47;;;6.80;99.90;;;;;;473509;248;27997;-72
2021/03/10 09:57:20;;;;;;;58.90;33.97;;;6.90;99.90;;;;;;473516;248;28485;-72
2021/03/10 09:59:21;;;;;;;51.20;31.90;;;6.90;99.90;;;;;;473512;248;28251;-72
2021/03/10 10:01:22;;;;;;;52.50;33.03;;;7.00;99.90;;;;;;473506;248;27949;-72
2021/03/10 10:03:23;;;;;;;57.23;34.50;;;6.90;99.90;;;;;;473519;248;27901;-74
2021/03/10 10:05:25;;;;;;;55.20;32.70;;;6.90;99.90;;;;;;473529;248;27882;-73
2021/03/10 10:07:26;;;;;;;56.97;32.93;;;6.90;99.90;;;;;;473524;248;27838;-73
2021/03/10 10:09:27;;;;;;;55.67;33.67;;;7.00;99.90;;;;;;473519;248;27666;-72
2021/03/10 10:11:28;;;;;;;58.60;33.43;;;7.00;99.90;;;;;;473556;248;27834;-72
2021/03/10 10:13:30;;;;;;;57.20;34.07;;;7.10;99.90;;;;;;473527;248;28371;-73
2021/03/10 10:15:32;;;;;;;58.27;34.20;;;7.20;99.90;;;;;;473533;248;28323;-72
2021/03/10 10:17:32;;;;;;;58.30;35.27;;;7.20;99.90;;;;;;473545;248;28214;-72
2021/03/10 10:19:33;;;;;;;57.00;34.90;;;7.10;99.90;;;;;;473572;248;27950;-72
2021/03/10 10:21:35;;;;;;;58.03;34.40;;;7.20;99.90;;;;;;473587;248;28077;-72